Airfield :
LOGIN :

Register | Disclaimer

   EN    FR    IT 

 










Legend :    VFR   Marginal VFR   IFR   Intensive IFR   Very Intensive IFR
Visi :
Ceiling :
>= 8 km
>= 3000ft
5 to 8 km
1000 to 3000 ft
1500m to 5 km
500 to 1000 ft
800 to 1500m
200 to 500 ft
< 800m
< 200 ft
Symbols :   Thunderstorms  Fog  Heavy snow  Heavy precipitations  Wind > 20 kt
SIGMETs :     Misc.  Thunderstorms  Icing  Turbulence  Mountain Waves  Volcanic Ashes






- Airport Elevation : 238 ft
- IATA code : FAB


EGLF - Farnborough

CURRENT METAR :
  • 082150Z AUTO 23014KT 9999 BKN039/// 05/02 Q0998

EXPIRED METARs :
  • 082120Z AUTO 25015KT 9999 SCT048/// 06/01 Q0998
  • 082050Z 25018KT 9999 SCT042 06/01 Q0998
  • 082020Z 25015KT 9999 -SHRA FEW022 SCT040 06/01 Q0998 REUP
  • 081950Z AUTO 25017G27KT 230V290 9999 FEW046/// 06/01 Q0997
  • 081920Z AUTO 24014KT 220V280 9999 NCD 06/01 Q0997

TAF TAF EGLF
Valid from the 08 at 21:00 until the 08 at 23:00 UTC


082004Z 0821/0823 24012KT 9999 FEW030
PROB30
TEMPO 0821/0823 24015G25KT 6000 RA SHRA BKN014
ATIS : +44 09063 800 400 (*282)



MET'MAP, your aeronautical weather chart ! - Copyright ORBIFLY December 2007 - Disclaimer

ORBIFLY MET'MAP TEAM :

Programming & Development : Alexandra Zaïnal
Concept & original design : Baudouin d'Aumeries
Assistance for programming : Marc-Olivier Méhu
Technical & hardware support : Manuel Goepfert

Contact : metmap@orbifly.com




SOURCES & CREDITS :

   NOAA